Terminal Aerodrome Forecast
Issued by NWS

Home | Current Version | Previous Version | Text Only | Print | Product List | Glossary On
Versions: 1 2 3 4 5 6 7 8 9 10 11 12 13 14 15 16 17 18 19 20 21 22 23
806
FTUS41 KPBZ 030303 AAA
TAFMGW
TAF AMD
KMGW 030303Z 0303/0324 VRB03KT P6SM VCSH OVC025
     FM031000 VRB03KT 3SM BR VCSH OVC015
     FM031400 VRB03KT P6SM BKN025
     FM031800 30005KT P6SM BKN040=

USA.gov is the U.S. government's official web portal to all federal, state and local government web resources and services.